Frisco, Colorado
Current Conditions -  °F | °C
As of 8:55 AM on Thursday 27 Nov 2014 (Local Time) from KCCU Reporting Station
Clear Clear  
Wind Chill: 20°   Ceiling: Unl
Heat Index: 27°   Visibility: 10mi
Dew Point: 10°   Wind: 6mph
Humidity: 51%   Direction: 240°WSW
Pressure: 30.54"   Gusts: NA
Location:  39.57°N, 106.1°W
Report Text: KCCU 271555Z AUTO 24005KT 10SM CLR M03/M12 A3054 RMK AO2
Loading
Personal Weather Stations






























Interactive Weather Map New forecast layout! Learn more

10-Day Weather Forecast

Advertisements
Track Severe Weather on mobile